sensor_id;sensor_type;location;lat;lon;timestamp;P1;durP1;ratioP1;P2;durP2;ratioP2
19049;SDS011;9657;45.940;12.840;2023-02-28T00:00:09;4.00;;;2.70;;
19049;SDS011;9657;45.940;12.840;2023-02-28T00:02:38;6.10;;;3.30;;
19049;SDS011;9657;45.940;12.840;2023-02-28T00:05:06;6.83;;;3.30;;
19049;SDS011;9657;45.940;12.840;2023-02-28T00:07:35;4.40;;;3.17;;
19049;SDS011;9657;45.940;12.840;2023-02-28T00:10:02;4.50;;;3.40;;
19049;SDS011;9657;45.940;12.840;2023-02-28T00:12:32;6.20;;;3.03;;
19049;SDS011;9657;45.940;12.840;2023-02-28T00:15:00;4.10;;;3.10;;
19049;SDS011;9657;45.940;12.840;2023-02-28T00:17:27;3.83;;;3.43;;
19049;SDS011;9657;45.940;12.840;2023-02-28T00:19:54;4.03;;;2.80;;
19049;SDS011;9657;45.940;12.840;2023-02-28T00:22:22;4.37;;;3.23;;
19049;SDS011;9657;45.940;12.840;2023-02-28T00:24:49;5.40;;;3.50;;
19049;SDS011;9657;45.940;12.840;2023-02-28T00:27:16;4.33;;;2.97;;
19049;SDS011;9657;45.940;12.840;2023-02-28T00:29:44;3.97;;;3.50;;
19049;SDS011;9657;45.940;12.840;2023-02-28T00:32:13;4.30;;;3.30;;
19049;SDS011;9657;45.940;12.840;2023-02-28T00:34:40;3.87;;;3.47;;
19049;SDS011;9657;45.940;12.840;2023-02-28T00:37:08;4.33;;;3.20;;
19049;SDS011;9657;45.940;12.840;2023-02-28T00:39:37;4.33;;;3.60;;
19049;SDS011;9657;45.940;12.840;2023-02-28T00:42:04;4.87;;;3.60;;
19049;SDS011;9657;45.940;12.840;2023-02-28T00:44:33;4.30;;;3.23;;
19049;SDS011;9657;45.940;12.840;2023-02-28T00:47:01;4.77;;;3.30;;
19049;SDS011;9657;45.940;12.840;2023-02-28T00:49:28;4.57;;;3.33;;
19049;SDS011;9657;45.940;12.840;2023-02-28T00:51:55;4.97;;;3.57;;
19049;SDS011;9657;45.940;12.840;2023-02-28T00:54:23;4.47;;;3.83;;
19049;SDS011;9657;45.940;12.840;2023-02-28T00:56:50;4.10;;;3.50;;
19049;SDS011;9657;45.940;12.840;2023-02-28T00:59:17;4.17;;;3.47;;
19049;SDS011;9657;45.940;12.840;2023-02-28T01:01:45;6.33;;;3.23;;
19049;SDS011;9657;45.940;12.840;2023-02-28T01:04:14;6.30;;;3.33;;
19049;SDS011;9657;45.940;12.840;2023-02-28T01:06:41;4.03;;;3.30;;
19049;SDS011;9657;45.940;12.840;2023-02-28T01:09:09;5.77;;;3.43;;
19049;SDS011;9657;45.940;12.840;2023-02-28T01:11:36;5.27;;;3.83;;
19049;SDS011;9657;45.940;12.840;2023-02-28T01:14:04;4.20;;;3.20;;
19049;SDS011;9657;45.940;12.840;2023-02-28T01:16:31;6.80;;;4.33;;
19049;SDS011;9657;45.940;12.840;2023-02-28T01:18:58;4.73;;;3.83;;
19049;SDS011;9657;45.940;12.840;2023-02-28T01:21:26;4.47;;;3.80;;
19049;SDS011;9657;45.940;12.840;2023-02-28T01:23:55;6.13;;;3.80;;
19049;SDS011;9657;45.940;12.840;2023-02-28T01:26:23;3.87;;;3.43;;
19049;SDS011;9657;45.940;12.840;2023-02-28T01:28:50;4.23;;;3.70;;
19049;SDS011;9657;45.940;12.840;2023-02-28T01:31:19;5.63;;;3.87;;
19049;SDS011;9657;45.940;12.840;2023-02-28T01:33:48;5.40;;;3.90;;
19049;SDS011;9657;45.940;12.840;2023-02-28T01:36:16;3.63;;;3.00;;
19049;SDS011;9657;45.940;12.840;2023-02-28T01:38:46;4.57;;;3.63;;
19049;SDS011;9657;45.940;12.840;2023-02-28T01:41:16;5.83;;;3.93;;
19049;SDS011;9657;45.940;12.840;2023-02-28T01:43:55;6.93;;;3.93;;
19049;SDS011;9657;45.940;12.840;2023-02-28T01:46:24;4.80;;;3.73;;
19049;SDS011;9657;45.940;12.840;2023-02-28T01:48:51;4.07;;;3.60;;
19049;SDS011;9657;45.940;12.840;2023-02-28T01:51:24;7.20;;;3.80;;
19049;SDS011;9657;45.940;12.840;2023-02-28T01:53:57;6.50;;;3.50;;
19049;SDS011;9657;45.940;12.840;2023-02-28T01:56:27;4.80;;;4.10;;
19049;SDS011;9657;45.940;12.840;2023-02-28T01:58:56;6.80;;;3.70;;
19049;SDS011;9657;45.940;12.840;2023-02-28T02:04:00;6.30;;;3.63;;
19049;SDS011;9657;45.940;12.840;2023-02-28T02:06:29;5.30;;;3.93;;
19049;SDS011;9657;45.940;12.840;2023-02-28T02:09:00;4.20;;;3.80;;
19049;SDS011;9657;45.940;12.840;2023-02-28T02:11:28;6.73;;;4.30;;
19049;SDS011;9657;45.940;12.840;2023-02-28T02:14:02;5.03;;;3.67;;
19049;SDS011;9657;45.940;12.840;2023-02-28T02:16:42;5.57;;;3.80;;
19049;SDS011;9657;45.940;12.840;2023-02-28T02:25:08;5.93;;;4.30;;
19049;SDS011;9657;45.940;12.840;2023-02-28T02:27:49;6.00;;;4.60;;
19049;SDS011;9657;45.940;12.840;2023-02-28T02:30:35;4.00;;;3.47;;
19049;SDS011;9657;45.940;12.840;2023-02-28T02:33:23;5.97;;;4.00;;
19049;SDS011;9657;45.940;12.840;2023-02-28T02:36:11;5.50;;;3.90;;
19049;SDS011;9657;45.940;12.840;2023-02-28T02:38:45;5.77;;;4.10;;
19049;SDS011;9657;45.940;12.840;2023-02-28T02:41:17;5.00;;;3.77;;
19049;SDS011;9657;45.940;12.840;2023-02-28T02:43:49;5.90;;;4.20;;
19049;SDS011;9657;45.940;12.840;2023-02-28T02:46:19;5.40;;;4.30;;
19049;SDS011;9657;45.940;12.840;2023-02-28T02:48:49;6.67;;;4.53;;
19049;SDS011;9657;45.940;12.840;2023-02-28T02:51:20;6.73;;;4.40;;
19049;SDS011;9657;45.940;12.840;2023-02-28T02:53:49;5.63;;;5.13;;
19049;SDS011;9657;45.940;12.840;2023-02-28T02:56:20;4.50;;;3.87;;
19049;SDS011;9657;45.940;12.840;2023-02-28T02:58:51;4.93;;;4.10;;
19049;SDS011;9657;45.940;12.840;2023-02-28T03:01:22;5.27;;;3.57;;
19049;SDS011;9657;45.940;12.840;2023-02-28T03:03:54;5.57;;;3.67;;
19049;SDS011;9657;45.940;12.840;2023-02-28T03:06:24;4.50;;;4.10;;
19049;SDS011;9657;45.940;12.840;2023-02-28T03:08:52;4.77;;;3.63;;
19049;SDS011;9657;45.940;12.840;2023-02-28T03:11:19;7.33;;;4.10;;
19049;SDS011;9657;45.940;12.840;2023-02-28T03:13:54;6.37;;;4.10;;
19049;SDS011;9657;45.940;12.840;2023-02-28T03:16:33;5.73;;;4.03;;
19049;SDS011;9657;45.940;12.840;2023-02-28T03:19:18;5.43;;;3.80;;
19049;SDS011;9657;45.940;12.840;2023-02-28T03:22:01;6.40;;;3.77;;
19049;SDS011;9657;45.940;12.840;2023-02-28T03:24:41;6.03;;;4.30;;
19049;SDS011;9657;45.940;12.840;2023-02-28T03:27:16;5.23;;;4.20;;
19049;SDS011;9657;45.940;12.840;2023-02-28T03:29:50;5.20;;;3.93;;
19049;SDS011;9657;45.940;12.840;2023-02-28T03:32:24;5.60;;;4.57;;
19049;SDS011;9657;45.940;12.840;2023-02-28T03:34:56;4.97;;;4.13;;
19049;SDS011;9657;45.940;12.840;2023-02-28T03:37:30;4.87;;;4.20;;
19049;SDS011;9657;45.940;12.840;2023-02-28T03:40:02;5.50;;;4.53;;
19049;SDS011;9657;45.940;12.840;2023-02-28T03:42:33;5.67;;;4.07;;
19049;SDS011;9657;45.940;12.840;2023-02-28T03:45:04;4.63;;;3.93;;
19049;SDS011;9657;45.940;12.840;2023-02-28T03:47:39;6.73;;;4.47;;
19049;SDS011;9657;45.940;12.840;2023-02-28T03:50:12;6.53;;;3.93;;
19049;SDS011;9657;45.940;12.840;2023-02-28T03:52:46;5.50;;;4.13;;
19049;SDS011;9657;45.940;12.840;2023-02-28T03:55:16;6.20;;;4.73;;
19049;SDS011;9657;45.940;12.840;2023-02-28T03:57:47;6.90;;;4.03;;
19049;SDS011;9657;45.940;12.840;2023-02-28T04:00:25;6.50;;;4.57;;
19049;SDS011;9657;45.940;12.840;2023-02-28T04:02:55;6.17;;;4.23;;
19049;SDS011;9657;45.940;12.840;2023-02-28T04:05:22;4.63;;;4.10;;
19049;SDS011;9657;45.940;12.840;2023-02-28T04:07:51;6.63;;;4.23;;
19049;SDS011;9657;45.940;12.840;2023-02-28T04:10:19;5.40;;;4.10;;
19049;SDS011;9657;45.940;12.840;2023-02-28T04:12:46;6.40;;;3.97;;
19049;SDS011;9657;45.940;12.840;2023-02-28T04:15:13;5.23;;;4.00;;
19049;SDS011;9657;45.940;12.840;2023-02-28T04:17:40;7.37;;;4.53;;
19049;SDS011;9657;45.940;12.840;2023-02-28T04:20:08;5.07;;;4.47;;
19049;SDS011;9657;45.940;12.840;2023-02-28T04:22:36;6.63;;;4.67;;
19049;SDS011;9657;45.940;12.840;2023-02-28T04:25:05;6.10;;;4.50;;
19049;SDS011;9657;45.940;12.840;2023-02-28T04:27:33;6.53;;;4.53;;
19049;SDS011;9657;45.940;12.840;2023-02-28T04:30:00;5.30;;;4.40;;
19049;SDS011;9657;45.940;12.840;2023-02-28T04:32:27;6.60;;;4.87;;
19049;SDS011;9657;45.940;12.840;2023-02-28T04:34:54;4.77;;;4.07;;
19049;SDS011;9657;45.940;12.840;2023-02-28T04:37:21;5.93;;;4.57;;
19049;SDS011;9657;45.940;12.840;2023-02-28T04:39:52;6.13;;;4.13;;
19049;SDS011;9657;45.940;12.840;2023-02-28T04:42:21;5.43;;;4.43;;
19049;SDS011;9657;45.940;12.840;2023-02-28T04:44:48;5.90;;;4.17;;
19049;SDS011;9657;45.940;12.840;2023-02-28T04:47:15;6.57;;;4.13;;
19049;SDS011;9657;45.940;12.840;2023-02-28T04:49:42;5.97;;;4.53;;
19049;SDS011;9657;45.940;12.840;2023-02-28T04:52:09;6.43;;;4.43;;
19049;SDS011;9657;45.940;12.840;2023-02-28T04:54:38;5.70;;;4.27;;
19049;SDS011;9657;45.940;12.840;2023-02-28T04:57:05;7.67;;;4.40;;
19049;SDS011;9657;45.940;12.840;2023-02-28T04:59:33;6.90;;;4.50;;
19049;SDS011;9657;45.940;12.840;2023-02-28T05:02:00;7.40;;;4.10;;
19049;SDS011;9657;45.940;12.840;2023-02-28T05:04:31;5.63;;;4.57;;
19049;SDS011;9657;45.940;12.840;2023-02-28T05:06:59;7.50;;;4.33;;
19049;SDS011;9657;45.940;12.840;2023-02-28T05:09:27;7.33;;;4.87;;
19049;SDS011;9657;45.940;12.840;2023-02-28T05:11:54;7.70;;;4.33;;
19049;SDS011;9657;45.940;12.840;2023-02-28T05:14:21;5.40;;;3.70;;
19049;SDS011;9657;45.940;12.840;2023-02-28T05:16:50;6.03;;;4.20;;
19049;SDS011;9657;45.940;12.840;2023-02-28T05:19:17;6.23;;;4.80;;
19049;SDS011;9657;45.940;12.840;2023-02-28T05:21:48;7.97;;;4.63;;
19049;SDS011;9657;45.940;12.840;2023-02-28T05:24:18;5.53;;;4.10;;
19049;SDS011;9657;45.940;12.840;2023-02-28T05:26:47;6.33;;;4.23;;
19049;SDS011;9657;45.940;12.840;2023-02-28T05:29:15;5.23;;;4.33;;
19049;SDS011;9657;45.940;12.840;2023-02-28T05:31:42;8.20;;;5.17;;
19049;SDS011;9657;45.940;12.840;2023-02-28T05:34:11;6.40;;;4.60;;
19049;SDS011;9657;45.940;12.840;2023-02-28T05:36:40;9.00;;;5.17;;
19049;SDS011;9657;45.940;12.840;2023-02-28T05:39:08;6.47;;;4.57;;
19049;SDS011;9657;45.940;12.840;2023-02-28T05:41:38;6.83;;;4.47;;
19049;SDS011;9657;45.940;12.840;2023-02-28T05:44:08;4.50;;;3.83;;
19049;SDS011;9657;45.940;12.840;2023-02-28T05:46:35;5.73;;;4.10;;
19049;SDS011;9657;45.940;12.840;2023-02-28T05:49:03;6.57;;;4.20;;
19049;SDS011;9657;45.940;12.840;2023-02-28T05:51:31;6.63;;;4.53;;
19049;SDS011;9657;45.940;12.840;2023-02-28T05:53:59;7.73;;;5.23;;
19049;SDS011;9657;45.940;12.840;2023-02-28T05:56:27;6.07;;;4.13;;
19049;SDS011;9657;45.940;12.840;2023-02-28T05:58:54;6.90;;;4.00;;
19049;SDS011;9657;45.940;12.840;2023-02-28T06:01:23;5.20;;;4.03;;
19049;SDS011;9657;45.940;12.840;2023-02-28T06:03:56;5.47;;;3.77;;
19049;SDS011;9657;45.940;12.840;2023-02-28T06:06:24;5.27;;;4.07;;
19049;SDS011;9657;45.940;12.840;2023-02-28T06:08:53;6.83;;;4.70;;
19049;SDS011;9657;45.940;12.840;2023-02-28T06:11:20;7.60;;;4.93;;
19049;SDS011;9657;45.940;12.840;2023-02-28T06:13:52;6.40;;;4.07;;
19049;SDS011;9657;45.940;12.840;2023-02-28T06:16:20;7.63;;;4.50;;
19049;SDS011;9657;45.940;12.840;2023-02-28T06:18:47;7.50;;;4.80;;
19049;SDS011;9657;45.940;12.840;2023-02-28T06:21:14;5.97;;;4.40;;
19049;SDS011;9657;45.940;12.840;2023-02-28T06:23:41;7.23;;;4.53;;
19049;SDS011;9657;45.940;12.840;2023-02-28T06:26:09;5.80;;;4.43;;
19049;SDS011;9657;45.940;12.840;2023-02-28T06:28:36;7.13;;;5.17;;
19049;SDS011;9657;45.940;12.840;2023-02-28T06:31:06;6.67;;;4.27;;
19049;SDS011;9657;45.940;12.840;2023-02-28T06:33:34;7.40;;;4.63;;
19049;SDS011;9657;45.940;12.840;2023-02-28T06:36:01;7.07;;;4.10;;
19049;SDS011;9657;45.940;12.840;2023-02-28T06:38:29;6.37;;;4.83;;
19049;SDS011;9657;45.940;12.840;2023-02-28T06:40:56;8.83;;;4.83;;
19049;SDS011;9657;45.940;12.840;2023-02-28T06:43:27;6.20;;;4.43;;
19049;SDS011;9657;45.940;12.840;2023-02-28T06:45:55;5.83;;;4.37;;
19049;SDS011;9657;45.940;12.840;2023-02-28T06:48:23;5.40;;;4.10;;
19049;SDS011;9657;45.940;12.840;2023-02-28T06:50:50;5.27;;;3.90;;
19049;SDS011;9657;45.940;12.840;2023-02-28T06:53:17;5.90;;;4.30;;
19049;SDS011;9657;45.940;12.840;2023-02-28T06:55:45;6.83;;;4.20;;
19049;SDS011;9657;45.940;12.840;2023-02-28T06:58:12;7.73;;;4.40;;
19049;SDS011;9657;45.940;12.840;2023-02-28T07:00:42;6.67;;;5.10;;
19049;SDS011;9657;45.940;12.840;2023-02-28T07:03:09;7.77;;;4.63;;
19049;SDS011;9657;45.940;12.840;2023-02-28T07:05:37;7.33;;;4.60;;
19049;SDS011;9657;45.940;12.840;2023-02-28T07:08:05;8.70;;;4.40;;
19049;SDS011;9657;45.940;12.840;2023-02-28T07:10:33;9.80;;;4.57;;
19049;SDS011;9657;45.940;12.840;2023-02-28T07:13:03;5.97;;;3.90;;
19049;SDS011;9657;45.940;12.840;2023-02-28T07:15:30;6.83;;;4.60;;
19049;SDS011;9657;45.940;12.840;2023-02-28T07:17:59;5.63;;;3.90;;
19049;SDS011;9657;45.940;12.840;2023-02-28T07:20:26;7.70;;;4.57;;
19049;SDS011;9657;45.940;12.840;2023-02-28T07:22:53;5.83;;;4.20;;
19049;SDS011;9657;45.940;12.840;2023-02-28T07:25:21;9.47;;;4.53;;
19049;SDS011;9657;45.940;12.840;2023-02-28T07:27:48;7.23;;;4.97;;
19049;SDS011;9657;45.940;12.840;2023-02-28T07:30:16;8.00;;;4.87;;
19049;SDS011;9657;45.940;12.840;2023-02-28T07:32:43;7.33;;;4.67;;
19049;SDS011;9657;45.940;12.840;2023-02-28T07:35:12;8.93;;;5.03;;
19049;SDS011;9657;45.940;12.840;2023-02-28T07:37:40;8.00;;;4.53;;
19049;SDS011;9657;45.940;12.840;2023-02-28T07:40:08;7.33;;;4.13;;
19049;SDS011;9657;45.940;12.840;2023-02-28T07:42:38;7.40;;;4.70;;
19049;SDS011;9657;45.940;12.840;2023-02-28T07:45:05;7.23;;;4.27;;
19049;SDS011;9657;45.940;12.840;2023-02-28T07:47:33;7.47;;;4.73;;
19049;SDS011;9657;45.940;12.840;2023-02-28T07:50:00;6.60;;;4.47;;
19049;SDS011;9657;45.940;12.840;2023-02-28T07:52:29;7.90;;;4.63;;
19049;SDS011;9657;45.940;12.840;2023-02-28T07:54:56;5.90;;;4.07;;
19049;SDS011;9657;45.940;12.840;2023-02-28T07:57:23;5.87;;;4.03;;
19049;SDS011;9657;45.940;12.840;2023-02-28T07:59:50;8.33;;;4.60;;
19049;SDS011;9657;45.940;12.840;2023-02-28T08:02:17;11.20;;;4.50;;
19049;SDS011;9657;45.940;12.840;2023-02-28T08:04:45;8.20;;;4.63;;
19049;SDS011;9657;45.940;12.840;2023-02-28T08:07:13;6.97;;;4.50;;
19049;SDS011;9657;45.940;12.840;2023-02-28T08:09:42;10.27;;;4.70;;
19049;SDS011;9657;45.940;12.840;2023-02-28T08:12:10;8.17;;;4.60;;
19049;SDS011;9657;45.940;12.840;2023-02-28T08:14:37;5.77;;;4.17;;
19049;SDS011;9657;45.940;12.840;2023-02-28T08:17:05;7.10;;;4.37;;
19049;SDS011;9657;45.940;12.840;2023-02-28T08:19:32;8.73;;;5.77;;
19049;SDS011;9657;45.940;12.840;2023-02-28T08:21:59;9.30;;;4.47;;
19049;SDS011;9657;45.940;12.840;2023-02-28T08:24:26;7.80;;;4.30;;
19049;SDS011;9657;45.940;12.840;2023-02-28T08:26:55;10.60;;;4.63;;
19049;SDS011;9657;45.940;12.840;2023-02-28T08:29:22;6.80;;;4.43;;
19049;SDS011;9657;45.940;12.840;2023-02-28T08:31:49;9.37;;;5.53;;
19049;SDS011;9657;45.940;12.840;2023-02-28T08:34:16;7.80;;;4.77;;
19049;SDS011;9657;45.940;12.840;2023-02-28T08:36:43;7.47;;;4.43;;
19049;SDS011;9657;45.940;12.840;2023-02-28T08:39:11;7.03;;;4.17;;
19049;SDS011;9657;45.940;12.840;2023-02-28T08:41:38;5.97;;;4.07;;
19049;SDS011;9657;45.940;12.840;2023-02-28T08:44:07;7.60;;;4.90;;
19049;SDS011;9657;45.940;12.840;2023-02-28T08:46:34;8.93;;;4.83;;
19049;SDS011;9657;45.940;12.840;2023-02-28T08:49:01;7.03;;;4.47;;
19049;SDS011;9657;45.940;12.840;2023-02-28T08:51:29;7.67;;;4.50;;
19049;SDS011;9657;45.940;12.840;2023-02-28T08:53:57;7.57;;;4.30;;
19049;SDS011;9657;45.940;12.840;2023-02-28T08:56:26;9.03;;;4.50;;
19049;SDS011;9657;45.940;12.840;2023-02-28T08:58:54;6.80;;;4.13;;
19049;SDS011;9657;45.940;12.840;2023-02-28T09:01:24;8.47;;;4.97;;
19049;SDS011;9657;45.940;12.840;2023-02-28T09:03:53;8.43;;;5.10;;
19049;SDS011;9657;45.940;12.840;2023-02-28T09:06:22;8.43;;;4.90;;
19049;SDS011;9657;45.940;12.840;2023-02-28T09:08:50;6.77;;;4.47;;
19049;SDS011;9657;45.940;12.840;2023-02-28T09:11:18;13.40;;;5.60;;
19049;SDS011;9657;45.940;12.840;2023-02-28T09:13:45;12.07;;;5.90;;
19049;SDS011;9657;45.940;12.840;2023-02-28T09:16:13;9.77;;;5.07;;
19049;SDS011;9657;45.940;12.840;2023-02-28T09:18:43;13.20;;;5.37;;
19049;SDS011;9657;45.940;12.840;2023-02-28T09:21:11;17.13;;;6.50;;
19049;SDS011;9657;45.940;12.840;2023-02-28T09:23:39;11.53;;;6.10;;
19049;SDS011;9657;45.940;12.840;2023-02-28T09:26:07;20.43;;;6.80;;
19049;SDS011;9657;45.940;12.840;2023-02-28T09:28:38;15.43;;;6.33;;
19049;SDS011;9657;45.940;12.840;2023-02-28T09:31:05;12.57;;;5.67;;
19049;SDS011;9657;45.940;12.840;2023-02-28T09:33:32;12.83;;;6.00;;
19049;SDS011;9657;45.940;12.840;2023-02-28T09:36:02;20.70;;;6.17;;
19049;SDS011;9657;45.940;12.840;2023-02-28T09:38:29;17.17;;;6.80;;
19049;SDS011;9657;45.940;12.840;2023-02-28T09:40:57;12.20;;;5.20;;
19049;SDS011;9657;45.940;12.840;2023-02-28T09:43:28;12.17;;;5.53;;
19049;SDS011;9657;45.940;12.840;2023-02-28T09:46:01;10.97;;;5.87;;
19049;SDS011;9657;45.940;12.840;2023-02-28T09:48:37;14.93;;;5.50;;
19049;SDS011;9657;45.940;12.840;2023-02-28T09:51:12;9.43;;;5.40;;
19049;SDS011;9657;45.940;12.840;2023-02-28T09:53:49;10.37;;;5.90;;
19049;SDS011;9657;45.940;12.840;2023-02-28T09:56:18;11.40;;;5.37;;
19049;SDS011;9657;45.940;12.840;2023-02-28T09:58:53;8.87;;;5.77;;
19049;SDS011;9657;45.940;12.840;2023-02-28T10:01:25;12.00;;;5.40;;
19049;SDS011;9657;45.940;12.840;2023-02-28T10:04:00;12.57;;;5.23;;
19049;SDS011;9657;45.940;12.840;2023-02-28T10:06:34;10.67;;;5.00;;
19049;SDS011;9657;45.940;12.840;2023-02-28T10:09:08;10.47;;;5.33;;
19049;SDS011;9657;45.940;12.840;2023-02-28T10:11:39;10.30;;;5.10;;
19049;SDS011;9657;45.940;12.840;2023-02-28T10:14:10;9.60;;;5.00;;
19049;SDS011;9657;45.940;12.840;2023-02-28T10:16:41;9.73;;;5.40;;
19049;SDS011;9657;45.940;12.840;2023-02-28T10:19:13;9.83;;;5.63;;
19049;SDS011;9657;45.940;12.840;2023-02-28T10:21:49;10.07;;;4.50;;
19049;SDS011;9657;45.940;12.840;2023-02-28T10:24:28;9.10;;;4.87;;
19049;SDS011;9657;45.940;12.840;2023-02-28T10:26:59;8.20;;;5.03;;
19049;SDS011;9657;45.940;12.840;2023-02-28T10:29:31;10.13;;;5.33;;
19049;SDS011;9657;45.940;12.840;2023-02-28T10:32:00;8.17;;;4.50;;
19049;SDS011;9657;45.940;12.840;2023-02-28T10:34:29;10.70;;;5.20;;
19049;SDS011;9657;45.940;12.840;2023-02-28T10:36:58;8.47;;;4.77;;
19049;SDS011;9657;45.940;12.840;2023-02-28T10:39:36;8.30;;;4.70;;
19049;SDS011;9657;45.940;12.840;2023-02-28T10:42:04;9.63;;;5.03;;
19049;SDS011;9657;45.940;12.840;2023-02-28T10:44:43;9.07;;;4.60;;
19049;SDS011;9657;45.940;12.840;2023-02-28T10:47:13;7.17;;;4.43;;
19049;SDS011;9657;45.940;12.840;2023-02-28T10:49:45;8.57;;;4.07;;
19049;SDS011;9657;45.940;12.840;2023-02-28T10:52:15;10.23;;;4.63;;
19049;SDS011;9657;45.940;12.840;2023-02-28T10:55:13;7.40;;;4.60;;
19049;SDS011;9657;45.940;12.840;2023-02-28T10:57:42;11.77;;;5.03;;
19049;SDS011;9657;45.940;12.840;2023-02-28T11:00:14;9.70;;;4.17;;
19049;SDS011;9657;45.940;12.840;2023-02-28T11:02:43;9.77;;;4.73;;
19049;SDS011;9657;45.940;12.840;2023-02-28T11:05:24;8.40;;;5.03;;
19049;SDS011;9657;45.940;12.840;2023-02-28T11:07:54;8.23;;;4.67;;
19049;SDS011;9657;45.940;12.840;2023-02-28T11:10:24;8.87;;;5.47;;
19049;SDS011;9657;45.940;12.840;2023-02-28T11:12:55;7.83;;;4.60;;
19049;SDS011;9657;45.940;12.840;2023-02-28T11:15:24;6.53;;;4.73;;
19049;SDS011;9657;45.940;12.840;2023-02-28T11:17:53;5.90;;;3.87;;
19049;SDS011;9657;45.940;12.840;2023-02-28T11:20:23;7.33;;;5.07;;
19049;SDS011;9657;45.940;12.840;2023-02-28T11:22:53;6.50;;;4.97;;
19049;SDS011;9657;45.940;12.840;2023-02-28T11:25:22;6.57;;;4.10;;
19049;SDS011;9657;45.940;12.840;2023-02-28T11:27:52;8.73;;;4.77;;
19049;SDS011;9657;45.940;12.840;2023-02-28T11:30:27;10.97;;;5.20;;
19049;SDS011;9657;45.940;12.840;2023-02-28T11:32:56;5.90;;;4.40;;
19049;SDS011;9657;45.940;12.840;2023-02-28T11:35:27;8.13;;;5.00;;
19049;SDS011;9657;45.940;12.840;2023-02-28T11:38:01;11.07;;;5.00;;
19049;SDS011;9657;45.940;12.840;2023-02-28T11:40:34;7.97;;;5.00;;
19049;SDS011;9657;45.940;12.840;2023-02-28T11:43:11;6.47;;;4.77;;
19049;SDS011;9657;45.940;12.840;2023-02-28T11:45:52;6.50;;;4.13;;
19049;SDS011;9657;45.940;12.840;2023-02-28T11:48:30;9.53;;;5.40;;
19049;SDS011;9657;45.940;12.840;2023-02-28T11:51:06;10.33;;;4.33;;
19049;SDS011;9657;45.940;12.840;2023-02-28T11:53:51;7.67;;;4.63;;
19049;SDS011;9657;45.940;12.840;2023-02-28T11:56:29;8.10;;;4.73;;
19049;SDS011;9657;45.940;12.840;2023-02-28T11:59:02;7.87;;;4.00;;
19049;SDS011;9657;45.940;12.840;2023-02-28T12:01:48;7.93;;;4.33;;
19049;SDS011;9657;45.940;12.840;2023-02-28T12:04:30;7.20;;;4.67;;
19049;SDS011;9657;45.940;12.840;2023-02-28T12:07:08;6.47;;;4.40;;
19049;SDS011;9657;45.940;12.840;2023-02-28T12:09:47;7.90;;;4.93;;
19049;SDS011;9657;45.940;12.840;2023-02-28T12:12:33;8.80;;;4.67;;
19049;SDS011;9657;45.940;12.840;2023-02-28T12:18:16;6.97;;;5.00;;
19049;SDS011;9657;45.940;12.840;2023-02-28T12:20:53;10.17;;;4.73;;
19049;SDS011;9657;45.940;12.840;2023-02-28T12:23:42;6.37;;;4.00;;
19049;SDS011;9657;45.940;12.840;2023-02-28T12:26:25;6.80;;;4.00;;
19049;SDS011;9657;45.940;12.840;2023-02-28T12:29:02;9.77;;;5.37;;
19049;SDS011;9657;45.940;12.840;2023-02-28T12:31:37;8.77;;;4.93;;
19049;SDS011;9657;45.940;12.840;2023-02-28T12:34:09;7.83;;;4.33;;
19049;SDS011;9657;45.940;12.840;2023-02-28T12:36:39;6.47;;;4.37;;
19049;SDS011;9657;45.940;12.840;2023-02-28T12:39:08;5.67;;;3.90;;
19049;SDS011;9657;45.940;12.840;2023-02-28T12:41:41;6.93;;;4.27;;
19049;SDS011;9657;45.940;12.840;2023-02-28T12:44:12;6.70;;;4.20;;
19049;SDS011;9657;45.940;12.840;2023-02-28T12:46:44;5.33;;;4.03;;
19049;SDS011;9657;45.940;12.840;2023-02-28T12:49:16;6.87;;;4.20;;
19049;SDS011;9657;45.940;12.840;2023-02-28T12:51:47;6.87;;;4.63;;
19049;SDS011;9657;45.940;12.840;2023-02-28T12:54:18;7.10;;;4.30;;
19049;SDS011;9657;45.940;12.840;2023-02-28T12:56:53;8.03;;;5.23;;
19049;SDS011;9657;45.940;12.840;2023-02-28T12:59:25;6.57;;;4.23;;
19049;SDS011;9657;45.940;12.840;2023-02-28T13:02:18;7.70;;;4.07;;
19049;SDS011;9657;45.940;12.840;2023-02-28T13:08:34;8.07;;;5.43;;
19049;SDS011;9657;45.940;12.840;2023-02-28T13:11:23;8.50;;;5.27;;
19049;SDS011;9657;45.940;12.840;2023-02-28T13:13:58;5.23;;;4.27;;
19049;SDS011;9657;45.940;12.840;2023-02-28T13:16:26;6.57;;;4.53;;
19049;SDS011;9657;45.940;12.840;2023-02-28T13:19:07;7.13;;;4.77;;
19049;SDS011;9657;45.940;12.840;2023-02-28T13:21:41;6.63;;;4.43;;
19049;SDS011;9657;45.940;12.840;2023-02-28T13:24:10;5.83;;;4.47;;
19049;SDS011;9657;45.940;12.840;2023-02-28T13:29:58;5.90;;;4.23;;
19049;SDS011;9657;45.940;12.840;2023-02-28T13:32:29;6.70;;;4.60;;
19049;SDS011;9657;45.940;12.840;2023-02-28T13:38:15;6.73;;;4.37;;
19049;SDS011;9657;45.940;12.840;2023-02-28T13:44:04;8.43;;;4.53;;
19049;SDS011;9657;45.940;12.840;2023-02-28T13:46:34;7.67;;;4.53;;
19049;SDS011;9657;45.940;12.840;2023-02-28T13:49:18;6.57;;;4.20;;
19049;SDS011;9657;45.940;12.840;2023-02-28T13:51:47;9.13;;;4.90;;
19049;SDS011;9657;45.940;12.840;2023-02-28T13:54:21;7.17;;;4.40;;
19049;SDS011;9657;45.940;12.840;2023-02-28T13:57:01;6.90;;;4.80;;
19049;SDS011;9657;45.940;12.840;2023-02-28T13:59:38;9.57;;;4.70;;
19049;SDS011;9657;45.940;12.840;2023-02-28T14:02:23;5.40;;;4.47;;
19049;SDS011;9657;45.940;12.840;2023-02-28T14:05:12;6.23;;;4.67;;
19049;SDS011;9657;45.940;12.840;2023-02-28T14:07:43;8.37;;;5.00;;
19049;SDS011;9657;45.940;12.840;2023-02-28T14:10:20;8.67;;;4.40;;
19049;SDS011;9657;45.940;12.840;2023-02-28T14:12:54;7.77;;;4.80;;
19049;SDS011;9657;45.940;12.840;2023-02-28T14:15:28;6.83;;;4.23;;
19049;SDS011;9657;45.940;12.840;2023-02-28T14:18:27;6.87;;;4.40;;
19049;SDS011;9657;45.940;12.840;2023-02-28T14:20:59;5.00;;;3.73;;
19049;SDS011;9657;45.940;12.840;2023-02-28T14:23:36;6.13;;;4.33;;
19049;SDS011;9657;45.940;12.840;2023-02-28T14:26:14;5.50;;;4.23;;
19049;SDS011;9657;45.940;12.840;2023-02-28T14:28:59;5.43;;;4.13;;
19049;SDS011;9657;45.940;12.840;2023-02-28T14:31:38;9.23;;;4.57;;
19049;SDS011;9657;45.940;12.840;2023-02-28T14:34:17;6.30;;;4.73;;
19049;SDS011;9657;45.940;12.840;2023-02-28T14:36:52;7.40;;;4.50;;
19049;SDS011;9657;45.940;12.840;2023-02-28T14:39:20;6.87;;;4.70;;
19049;SDS011;9657;45.940;12.840;2023-02-28T14:41:50;5.43;;;3.67;;
19049;SDS011;9657;45.940;12.840;2023-02-28T14:44:18;7.90;;;4.50;;
19049;SDS011;9657;45.940;12.840;2023-02-28T14:46:46;6.33;;;4.20;;
19049;SDS011;9657;45.940;12.840;2023-02-28T14:49:18;6.37;;;3.77;;
19049;SDS011;9657;45.940;12.840;2023-02-28T14:51:47;6.60;;;4.07;;
19049;SDS011;9657;45.940;12.840;2023-02-28T14:54:16;6.20;;;4.17;;
19049;SDS011;9657;45.940;12.840;2023-02-28T14:56:49;6.13;;;4.43;;
19049;SDS011;9657;45.940;12.840;2023-02-28T14:59:27;6.80;;;4.63;;
19049;SDS011;9657;45.940;12.840;2023-02-28T15:04:53;7.53;;;5.00;;
19049;SDS011;9657;45.940;12.840;2023-02-28T15:07:21;7.63;;;4.10;;
19049;SDS011;9657;45.940;12.840;2023-02-28T15:10:06;6.27;;;4.00;;
19049;SDS011;9657;45.940;12.840;2023-02-28T15:12:37;5.83;;;4.33;;
19049;SDS011;9657;45.940;12.840;2023-02-28T15:15:13;4.97;;;4.33;;
19049;SDS011;9657;45.940;12.840;2023-02-28T15:17:41;7.33;;;4.43;;
19049;SDS011;9657;45.940;12.840;2023-02-28T15:20:13;7.43;;;4.37;;
19049;SDS011;9657;45.940;12.840;2023-02-28T15:22:41;6.73;;;3.77;;
19049;SDS011;9657;45.940;12.840;2023-02-28T15:25:09;5.73;;;4.10;;
19049;SDS011;9657;45.940;12.840;2023-02-28T15:27:42;6.77;;;4.37;;
19049;SDS011;9657;45.940;12.840;2023-02-28T15:30:15;5.03;;;3.97;;
19049;SDS011;9657;45.940;12.840;2023-02-28T15:32:43;5.83;;;4.03;;
19049;SDS011;9657;45.940;12.840;2023-02-28T15:35:19;6.80;;;4.53;;